SBBI

Details ICAO SBBI (BFH)
Name Curitiba Bacacheri
Region Brazil
Timezone America/Sao_Paulo (UTC-3.0)
Plans Departing 65
Arriving 29
Stats Elevation 3,057 ft / 932 m (AMSL)
Location -25.405079° -49.232036°
Runways 1
Magnetic Variation 19.676° W
Sunrise 2018-05-24 09:52:44 UTC / 2018-05-24 06:52:44 Local
Sunset 2018-05-24 20:37:41 UTC / 2018-05-24 17:37:41 Local
Advertisement - Login to hide

Runways

ID Width Length Bearing (true) Bearing (mag) Surface Threshold Offset Overrun Length
18 98 ft / 30 m 4,591 ft / 1,399 m 157.57° 177.25° Asphalt 527 ft / 161 m 0 ft / 0 m
36 98 ft / 30 m 4,591 ft / 1,399 m 337.56° 357.24° Asphalt 350 ft / 107 m 0 ft / 0 m

Map

Weather


0- 5 10 15 20 25 30 35+ Temperature / ° C

Clouds and Precipitation
Forecast for 2018-05-24 18:00 UTC. Updated a minute ago

Ground ~20,000 ft ~40,000 ft Winds

METAR

Not found

TAF

TAF SBBI 240945Z 2412/2424 10005KT 9999 BKN008 TN10/2412Z TX18/2417Z BECMG 2412/2413 BKN012 BECMG 2413/2415 FEW025 BECMG 2422/2424 BKN007 RMK PEB

Frequencies

Ground 121.80 MHz GND
Approach 129.55 MHz CURITIBA APP
Tower 118.90 MHz TWR
Warning: Do not use this data for real-world aviation or navigation. No guarantee of current accuracy is given.